X  Fermer Données météorologiques d'aviation de Metar     EDDK Cologne Bonn Airport
Température
55°F Température
52°F Point de rosée
88% Humidité



Vent
8 MPH
13 KM/H
4 M/S
7 KTS



240°
OSO
Conditions actuelles

Plutôt nuageux Plutôt nuageux
Pression 1012.87 (hPa) - 29.91 (inHg)
Visibilité 6 (mile) - 9.7 (km)
Aéroport
Code de l'aéroport EDDK

Emplacement: Cologne Bonn Airport
Distance: 56 (mi)

Metar:
EDDK 130150Z AUTO 24007KT 9999 BKN045 13/11 Q1013 NOSIG

Temps: 2024-07-13 03:50 CEST